Amboy, Iowa
Current Conditions -  °F | °C
As of 7:15 AM on Thursday 18 Dec 2014 (Local Time) from KTNU Reporting Station
Overcast Overcast  
Wind Chill: 11°   Ceiling: 6500
Heat Index: 19°   Visibility: 10mi
Dew Point: 18°   Wind: 6mph
Humidity: 93%   Direction: 70°ENE
Pressure: 30.28"   Gusts: NA
Location:  41.7317°N, 93.0122°W
Report Text: KTNU 181315Z AUTO 07005KT 10SM OVC065 M07/M08 A3028 RMK AO2
Loading
Personal Weather Stations






























Interactive Weather Map New forecast layout! Learn more

10-Day Weather Forecast

Advertisements
Track Severe Weather on mobile